sensor_id;sensor_type;location;lat;lon;timestamp;P1;durP1;ratioP1;P2;durP2;ratioP2
72095;SDS011;59968;51.084;16.748;2023-08-24T00:01:57;7.90;;;4.80;;
72095;SDS011;59968;51.084;16.748;2023-08-24T00:04:25;8.10;;;4.70;;
72095;SDS011;59968;51.084;16.748;2023-08-24T00:06:55;8.80;;;4.40;;
72095;SDS011;59968;51.084;16.748;2023-08-24T00:09:23;7.60;;;4.90;;
72095;SDS011;59968;51.084;16.748;2023-08-24T00:11:52;9.30;;;4.60;;
72095;SDS011;59968;51.084;16.748;2023-08-24T00:14:21;7.90;;;4.70;;
72095;SDS011;59968;51.084;16.748;2023-08-24T00:16:49;8.90;;;5.00;;
72095;SDS011;59968;51.084;16.748;2023-08-24T00:19:18;8.50;;;4.90;;
72095;SDS011;59968;51.084;16.748;2023-08-24T00:21:46;8.50;;;5.20;;
72095;SDS011;59968;51.084;16.748;2023-08-24T00:24:14;7.60;;;5.40;;
72095;SDS011;59968;51.084;16.748;2023-08-24T00:26:43;7.90;;;5.30;;
72095;SDS011;59968;51.084;16.748;2023-08-24T00:29:11;7.50;;;4.50;;
72095;SDS011;59968;51.084;16.748;2023-08-24T00:31:39;7.20;;;4.60;;
72095;SDS011;59968;51.084;16.748;2023-08-24T00:34:08;6.90;;;4.90;;
72095;SDS011;59968;51.084;16.748;2023-08-24T00:36:36;9.00;;;5.00;;
72095;SDS011;59968;51.084;16.748;2023-08-24T00:39:05;8.80;;;5.60;;
72095;SDS011;59968;51.084;16.748;2023-08-24T00:41:34;8.00;;;5.50;;
72095;SDS011;59968;51.084;16.748;2023-08-24T00:44:02;9.30;;;5.60;;
72095;SDS011;59968;51.084;16.748;2023-08-24T00:46:31;9.30;;;5.60;;
72095;SDS011;59968;51.084;16.748;2023-08-24T00:49:00;10.90;;;4.90;;
72095;SDS011;59968;51.084;16.748;2023-08-24T00:51:28;7.40;;;5.30;;
72095;SDS011;59968;51.084;16.748;2023-08-24T00:53:58;9.80;;;5.10;;
72095;SDS011;59968;51.084;16.748;2023-08-24T00:56:26;9.30;;;4.90;;
72095;SDS011;59968;51.084;16.748;2023-08-24T00:58:56;9.10;;;5.80;;
72095;SDS011;59968;51.084;16.748;2023-08-24T01:01:25;9.40;;;5.40;;
72095;SDS011;59968;51.084;16.748;2023-08-24T01:03:54;9.50;;;5.10;;
72095;SDS011;59968;51.084;16.748;2023-08-24T01:06:22;11.50;;;5.70;;
72095;SDS011;59968;51.084;16.748;2023-08-24T01:08:50;11.40;;;5.70;;
72095;SDS011;59968;51.084;16.748;2023-08-24T01:14:08;8.00;;;5.10;;
72095;SDS011;59968;51.084;16.748;2023-08-24T01:16:47;10.10;;;5.50;;
72095;SDS011;59968;51.084;16.748;2023-08-24T01:19:33;10.80;;;5.20;;
72095;SDS011;59968;51.084;16.748;2023-08-24T01:22:08;9.70;;;5.70;;
72095;SDS011;59968;51.084;16.748;2023-08-24T01:24:52;10.20;;;5.80;;
72095;SDS011;59968;51.084;16.748;2023-08-24T01:27:27;10.00;;;5.50;;
72095;SDS011;59968;51.084;16.748;2023-08-24T01:29:57;9.50;;;5.40;;
72095;SDS011;59968;51.084;16.748;2023-08-24T01:32:27;9.50;;;6.00;;
72095;SDS011;59968;51.084;16.748;2023-08-24T01:34:59;9.20;;;5.30;;
72095;SDS011;59968;51.084;16.748;2023-08-24T01:37:29;7.70;;;5.20;;
72095;SDS011;59968;51.084;16.748;2023-08-24T01:42:57;8.60;;;5.80;;
72095;SDS011;59968;51.084;16.748;2023-08-24T01:45:31;7.70;;;5.30;;
72095;SDS011;59968;51.084;16.748;2023-08-24T01:48:01;8.10;;;5.10;;
72095;SDS011;59968;51.084;16.748;2023-08-24T01:50:31;6.80;;;4.90;;
72095;SDS011;59968;51.084;16.748;2023-08-24T01:53:01;9.10;;;4.90;;
72095;SDS011;59968;51.084;16.748;2023-08-24T01:55:31;8.00;;;5.20;;
72095;SDS011;59968;51.084;16.748;2023-08-24T01:57:59;9.20;;;5.20;;
72095;SDS011;59968;51.084;16.748;2023-08-24T02:00:28;9.10;;;4.60;;
72095;SDS011;59968;51.084;16.748;2023-08-24T02:02:57;6.70;;;4.80;;
72095;SDS011;59968;51.084;16.748;2023-08-24T02:05:25;8.80;;;5.00;;
72095;SDS011;59968;51.084;16.748;2023-08-24T02:07:55;8.00;;;5.20;;
72095;SDS011;59968;51.084;16.748;2023-08-24T02:10:25;7.60;;;5.10;;
72095;SDS011;59968;51.084;16.748;2023-08-24T02:12:54;9.70;;;5.00;;
72095;SDS011;59968;51.084;16.748;2023-08-24T02:15:22;7.50;;;5.10;;
72095;SDS011;59968;51.084;16.748;2023-08-24T02:17:51;9.00;;;5.10;;
72095;SDS011;59968;51.084;16.748;2023-08-24T02:20:20;8.50;;;5.60;;
72095;SDS011;59968;51.084;16.748;2023-08-24T02:22:48;7.30;;;5.30;;
72095;SDS011;59968;51.084;16.748;2023-08-24T02:25:16;10.00;;;5.50;;
72095;SDS011;59968;51.084;16.748;2023-08-24T02:27:45;9.60;;;5.50;;
72095;SDS011;59968;51.084;16.748;2023-08-24T02:30:13;7.80;;;5.00;;
72095;SDS011;59968;51.084;16.748;2023-08-24T02:32:41;7.60;;;4.90;;
72095;SDS011;59968;51.084;16.748;2023-08-24T02:35:10;9.10;;;5.40;;
72095;SDS011;59968;51.084;16.748;2023-08-24T02:37:38;8.80;;;5.50;;
72095;SDS011;59968;51.084;16.748;2023-08-24T02:40:07;8.50;;;6.10;;
72095;SDS011;59968;51.084;16.748;2023-08-24T02:42:37;9.20;;;5.50;;
72095;SDS011;59968;51.084;16.748;2023-08-24T02:45:06;8.90;;;5.40;;
72095;SDS011;59968;51.084;16.748;2023-08-24T02:47:34;8.70;;;5.70;;
72095;SDS011;59968;51.084;16.748;2023-08-24T02:50:05;7.20;;;5.00;;
72095;SDS011;59968;51.084;16.748;2023-08-24T02:52:35;9.00;;;5.50;;
72095;SDS011;59968;51.084;16.748;2023-08-24T02:55:04;8.20;;;4.80;;
72095;SDS011;59968;51.084;16.748;2023-08-24T02:57:34;7.60;;;4.90;;
72095;SDS011;59968;51.084;16.748;2023-08-24T03:00:04;8.20;;;4.90;;
72095;SDS011;59968;51.084;16.748;2023-08-24T03:02:35;7.00;;;4.60;;
72095;SDS011;59968;51.084;16.748;2023-08-24T03:05:05;7.80;;;5.40;;
72095;SDS011;59968;51.084;16.748;2023-08-24T03:07:34;8.30;;;5.80;;
72095;SDS011;59968;51.084;16.748;2023-08-24T03:10:03;9.80;;;5.30;;
72095;SDS011;59968;51.084;16.748;2023-08-24T03:12:32;7.80;;;5.40;;
72095;SDS011;59968;51.084;16.748;2023-08-24T03:15:00;7.60;;;5.00;;
72095;SDS011;59968;51.084;16.748;2023-08-24T03:17:29;8.10;;;5.30;;
72095;SDS011;59968;51.084;16.748;2023-08-24T03:19:57;7.40;;;5.40;;
72095;SDS011;59968;51.084;16.748;2023-08-24T03:22:26;10.10;;;5.50;;
72095;SDS011;59968;51.084;16.748;2023-08-24T03:24:54;8.70;;;6.10;;
72095;SDS011;59968;51.084;16.748;2023-08-24T03:27:23;10.20;;;5.80;;
72095;SDS011;59968;51.084;16.748;2023-08-24T03:29:54;8.60;;;5.40;;
72095;SDS011;59968;51.084;16.748;2023-08-24T03:32:24;8.30;;;5.40;;
72095;SDS011;59968;51.084;16.748;2023-08-24T03:34:57;8.80;;;6.00;;
72095;SDS011;59968;51.084;16.748;2023-08-24T03:37:30;7.60;;;5.70;;
72095;SDS011;59968;51.084;16.748;2023-08-24T03:39:59;8.80;;;5.50;;
72095;SDS011;59968;51.084;16.748;2023-08-24T03:42:27;8.90;;;5.80;;
72095;SDS011;59968;51.084;16.748;2023-08-24T03:44:55;7.90;;;5.80;;
72095;SDS011;59968;51.084;16.748;2023-08-24T03:47:23;8.40;;;5.50;;
72095;SDS011;59968;51.084;16.748;2023-08-24T03:49:51;9.40;;;5.40;;
72095;SDS011;59968;51.084;16.748;2023-08-24T03:52:20;9.00;;;5.60;;
72095;SDS011;59968;51.084;16.748;2023-08-24T03:54:49;7.90;;;5.40;;
72095;SDS011;59968;51.084;16.748;2023-08-24T03:57:18;9.40;;;5.40;;
72095;SDS011;59968;51.084;16.748;2023-08-24T03:59:46;9.60;;;5.70;;
72095;SDS011;59968;51.084;16.748;2023-08-24T04:02:14;8.30;;;5.70;;
72095;SDS011;59968;51.084;16.748;2023-08-24T04:04:43;8.80;;;5.90;;
72095;SDS011;59968;51.084;16.748;2023-08-24T04:07:12;8.90;;;5.80;;
72095;SDS011;59968;51.084;16.748;2023-08-24T04:09:40;7.80;;;5.70;;
72095;SDS011;59968;51.084;16.748;2023-08-24T04:12:09;7.60;;;6.10;;
72095;SDS011;59968;51.084;16.748;2023-08-24T04:14:37;10.80;;;5.70;;
72095;SDS011;59968;51.084;16.748;2023-08-24T04:17:06;7.80;;;6.00;;
72095;SDS011;59968;51.084;16.748;2023-08-24T04:19:35;6.90;;;5.50;;
72095;SDS011;59968;51.084;16.748;2023-08-24T04:22:06;8.70;;;5.70;;
72095;SDS011;59968;51.084;16.748;2023-08-24T04:24:34;11.10;;;6.30;;
72095;SDS011;59968;51.084;16.748;2023-08-24T04:27:03;9.30;;;5.80;;
72095;SDS011;59968;51.084;16.748;2023-08-24T04:29:31;8.80;;;5.20;;
72095;SDS011;59968;51.084;16.748;2023-08-24T04:32:00;8.00;;;5.30;;
72095;SDS011;59968;51.084;16.748;2023-08-24T04:34:28;6.50;;;5.10;;
72095;SDS011;59968;51.084;16.748;2023-08-24T04:36:56;8.60;;;6.00;;
72095;SDS011;59968;51.084;16.748;2023-08-24T04:39:24;9.70;;;5.30;;
72095;SDS011;59968;51.084;16.748;2023-08-24T04:41:53;8.80;;;5.60;;
72095;SDS011;59968;51.084;16.748;2023-08-24T04:44:22;8.50;;;5.30;;
72095;SDS011;59968;51.084;16.748;2023-08-24T04:46:51;9.10;;;5.20;;
72095;SDS011;59968;51.084;16.748;2023-08-24T04:49:19;9.60;;;5.50;;
72095;SDS011;59968;51.084;16.748;2023-08-24T04:51:48;8.50;;;5.70;;
72095;SDS011;59968;51.084;16.748;2023-08-24T04:54:16;8.00;;;5.70;;
72095;SDS011;59968;51.084;16.748;2023-08-24T04:56:45;7.20;;;5.10;;
72095;SDS011;59968;51.084;16.748;2023-08-24T04:59:14;6.50;;;5.20;;
72095;SDS011;59968;51.084;16.748;2023-08-24T05:01:42;7.80;;;4.90;;
72095;SDS011;59968;51.084;16.748;2023-08-24T05:04:10;6.80;;;4.70;;
72095;SDS011;59968;51.084;16.748;2023-08-24T05:06:39;7.50;;;4.70;;
72095;SDS011;59968;51.084;16.748;2023-08-24T05:09:07;8.10;;;5.00;;
72095;SDS011;59968;51.084;16.748;2023-08-24T05:11:36;7.30;;;5.00;;
72095;SDS011;59968;51.084;16.748;2023-08-24T05:14:04;8.70;;;5.10;;
72095;SDS011;59968;51.084;16.748;2023-08-24T05:16:33;6.60;;;4.90;;
72095;SDS011;59968;51.084;16.748;2023-08-24T05:19:01;7.00;;;4.40;;
72095;SDS011;59968;51.084;16.748;2023-08-24T05:21:31;7.20;;;4.70;;
72095;SDS011;59968;51.084;16.748;2023-08-24T05:23:59;6.50;;;5.30;;
72095;SDS011;59968;51.084;16.748;2023-08-24T05:26:28;7.00;;;5.40;;
72095;SDS011;59968;51.084;16.748;2023-08-24T05:28:56;10.50;;;5.40;;
72095;SDS011;59968;51.084;16.748;2023-08-24T05:31:25;8.20;;;4.80;;
72095;SDS011;59968;51.084;16.748;2023-08-24T05:33:53;5.50;;;4.30;;
72095;SDS011;59968;51.084;16.748;2023-08-24T05:36:22;7.30;;;4.70;;
72095;SDS011;59968;51.084;16.748;2023-08-24T05:38:50;6.60;;;4.60;;
72095;SDS011;59968;51.084;16.748;2023-08-24T05:41:33;7.30;;;4.50;;
72095;SDS011;59968;51.084;16.748;2023-08-24T05:44:02;6.40;;;4.80;;
72095;SDS011;59968;51.084;16.748;2023-08-24T05:46:31;6.30;;;4.30;;
72095;SDS011;59968;51.084;16.748;2023-08-24T05:49:00;6.10;;;4.50;;
72095;SDS011;59968;51.084;16.748;2023-08-24T05:51:28;6.40;;;4.20;;
72095;SDS011;59968;51.084;16.748;2023-08-24T05:53:56;5.70;;;4.50;;
72095;SDS011;59968;51.084;16.748;2023-08-24T05:56:26;6.90;;;4.70;;
72095;SDS011;59968;51.084;16.748;2023-08-24T05:58:54;8.80;;;4.90;;
72095;SDS011;59968;51.084;16.748;2023-08-24T06:01:25;10.00;;;5.30;;
72095;SDS011;59968;51.084;16.748;2023-08-24T06:03:54;5.60;;;4.70;;
72095;SDS011;59968;51.084;16.748;2023-08-24T06:06:22;7.90;;;5.00;;
72095;SDS011;59968;51.084;16.748;2023-08-24T06:08:51;6.70;;;5.10;;
72095;SDS011;59968;51.084;16.748;2023-08-24T06:11:19;7.00;;;4.30;;
72095;SDS011;59968;51.084;16.748;2023-08-24T06:13:48;6.00;;;4.40;;
72095;SDS011;59968;51.084;16.748;2023-08-24T06:16:17;8.40;;;4.50;;
72095;SDS011;59968;51.084;16.748;2023-08-24T06:18:46;7.70;;;4.40;;
72095;SDS011;59968;51.084;16.748;2023-08-24T06:21:15;6.40;;;4.20;;
72095;SDS011;59968;51.084;16.748;2023-08-24T06:23:44;6.30;;;3.90;;
72095;SDS011;59968;51.084;16.748;2023-08-24T06:26:13;5.40;;;3.70;;
72095;SDS011;59968;51.084;16.748;2023-08-24T06:28:42;4.70;;;3.90;;
72095;SDS011;59968;51.084;16.748;2023-08-24T06:31:10;5.70;;;4.00;;
72095;SDS011;59968;51.084;16.748;2023-08-24T06:33:38;5.30;;;4.10;;
72095;SDS011;59968;51.084;16.748;2023-08-24T06:36:07;4.50;;;3.70;;
72095;SDS011;59968;51.084;16.748;2023-08-24T06:38:41;5.40;;;4.10;;
72095;SDS011;59968;51.084;16.748;2023-08-24T06:41:11;5.00;;;3.90;;
72095;SDS011;59968;51.084;16.748;2023-08-24T06:43:41;5.90;;;4.00;;
72095;SDS011;59968;51.084;16.748;2023-08-24T06:46:11;5.90;;;4.10;;
72095;SDS011;59968;51.084;16.748;2023-08-24T06:48:40;6.60;;;4.20;;
72095;SDS011;59968;51.084;16.748;2023-08-24T06:51:11;5.10;;;3.60;;
72095;SDS011;59968;51.084;16.748;2023-08-24T06:53:40;5.60;;;4.10;;
72095;SDS011;59968;51.084;16.748;2023-08-24T06:56:10;5.20;;;4.00;;
72095;SDS011;59968;51.084;16.748;2023-08-24T06:58:39;7.50;;;3.90;;
72095;SDS011;59968;51.084;16.748;2023-08-24T07:01:07;4.90;;;3.40;;
72095;SDS011;59968;51.084;16.748;2023-08-24T07:03:36;6.00;;;3.70;;
72095;SDS011;59968;51.084;16.748;2023-08-24T07:06:06;5.90;;;3.90;;
72095;SDS011;59968;51.084;16.748;2023-08-24T07:08:40;5.60;;;3.60;;
72095;SDS011;59968;51.084;16.748;2023-08-24T07:11:09;5.20;;;3.80;;
72095;SDS011;59968;51.084;16.748;2023-08-24T07:13:38;6.10;;;3.80;;
72095;SDS011;59968;51.084;16.748;2023-08-24T07:16:07;4.80;;;3.70;;
72095;SDS011;59968;51.084;16.748;2023-08-24T07:18:36;6.60;;;3.90;;
72095;SDS011;59968;51.084;16.748;2023-08-24T07:21:05;5.40;;;4.00;;
72095;SDS011;59968;51.084;16.748;2023-08-24T07:23:34;4.70;;;3.90;;
72095;SDS011;59968;51.084;16.748;2023-08-24T07:26:02;5.60;;;4.00;;
72095;SDS011;59968;51.084;16.748;2023-08-24T07:28:32;7.50;;;4.30;;
72095;SDS011;59968;51.084;16.748;2023-08-24T07:31:10;7.20;;;3.90;;
72095;SDS011;59968;51.084;16.748;2023-08-24T07:33:40;6.20;;;3.80;;
72095;SDS011;59968;51.084;16.748;2023-08-24T07:36:12;5.00;;;3.30;;
72095;SDS011;59968;51.084;16.748;2023-08-24T07:38:40;4.70;;;3.50;;
72095;SDS011;59968;51.084;16.748;2023-08-24T07:41:10;5.40;;;3.60;;
72095;SDS011;59968;51.084;16.748;2023-08-24T07:43:40;6.30;;;3.80;;
72095;SDS011;59968;51.084;16.748;2023-08-24T07:46:09;5.10;;;3.40;;
72095;SDS011;59968;51.084;16.748;2023-08-24T07:48:37;5.20;;;4.00;;
72095;SDS011;59968;51.084;16.748;2023-08-24T07:51:07;4.70;;;3.00;;
72095;SDS011;59968;51.084;16.748;2023-08-24T07:53:36;4.60;;;3.50;;
72095;SDS011;59968;51.084;16.748;2023-08-24T07:56:05;5.10;;;3.60;;
72095;SDS011;59968;51.084;16.748;2023-08-24T07:58:34;6.00;;;3.50;;
72095;SDS011;59968;51.084;16.748;2023-08-24T08:01:02;5.80;;;3.50;;
72095;SDS011;59968;51.084;16.748;2023-08-24T08:03:31;6.00;;;4.00;;
72095;SDS011;59968;51.084;16.748;2023-08-24T08:06:00;4.60;;;3.60;;
72095;SDS011;59968;51.084;16.748;2023-08-24T08:08:28;4.40;;;3.30;;
72095;SDS011;59968;51.084;16.748;2023-08-24T08:11:00;5.50;;;3.70;;
72095;SDS011;59968;51.084;16.748;2023-08-24T08:13:35;8.60;;;3.30;;
72095;SDS011;59968;51.084;16.748;2023-08-24T08:16:06;3.80;;;3.00;;
72095;SDS011;59968;51.084;16.748;2023-08-24T08:18:35;5.00;;;3.00;;
72095;SDS011;59968;51.084;16.748;2023-08-24T08:21:17;7.00;;;3.70;;
72095;SDS011;59968;51.084;16.748;2023-08-24T08:23:51;6.50;;;3.80;;
72095;SDS011;59968;51.084;16.748;2023-08-24T08:26:20;4.30;;;2.80;;
72095;SDS011;59968;51.084;16.748;2023-08-24T08:28:48;4.30;;;3.20;;
72095;SDS011;59968;51.084;16.748;2023-08-24T08:31:18;4.80;;;3.30;;
72095;SDS011;59968;51.084;16.748;2023-08-24T08:33:49;5.70;;;3.40;;
72095;SDS011;59968;51.084;16.748;2023-08-24T08:36:17;5.20;;;3.40;;
72095;SDS011;59968;51.084;16.748;2023-08-24T08:38:46;5.90;;;3.80;;
72095;SDS011;59968;51.084;16.748;2023-08-24T08:41:14;4.20;;;3.20;;
72095;SDS011;59968;51.084;16.748;2023-08-24T08:43:45;7.90;;;3.90;;
72095;SDS011;59968;51.084;16.748;2023-08-24T08:46:14;4.60;;;3.20;;
72095;SDS011;59968;51.084;16.748;2023-08-24T08:48:44;4.70;;;3.30;;
72095;SDS011;59968;51.084;16.748;2023-08-24T08:51:15;6.80;;;3.00;;
72095;SDS011;59968;51.084;16.748;2023-08-24T08:53:46;5.80;;;3.50;;
72095;SDS011;59968;51.084;16.748;2023-08-24T08:56:15;3.80;;;2.60;;
72095;SDS011;59968;51.084;16.748;2023-08-24T08:58:45;5.30;;;2.80;;
72095;SDS011;59968;51.084;16.748;2023-08-24T09:01:15;4.10;;;2.80;;
72095;SDS011;59968;51.084;16.748;2023-08-24T09:03:43;4.90;;;3.20;;
72095;SDS011;59968;51.084;16.748;2023-08-24T09:06:14;4.00;;;2.70;;
72095;SDS011;59968;51.084;16.748;2023-08-24T09:08:42;4.60;;;3.00;;
72095;SDS011;59968;51.084;16.748;2023-08-24T09:11:11;3.70;;;3.20;;
72095;SDS011;59968;51.084;16.748;2023-08-24T09:13:40;5.10;;;3.10;;
72095;SDS011;59968;51.084;16.748;2023-08-24T09:16:09;4.80;;;3.40;;
72095;SDS011;59968;51.084;16.748;2023-08-24T09:18:46;5.40;;;3.20;;
72095;SDS011;59968;51.084;16.748;2023-08-24T09:21:15;3.70;;;2.80;;
72095;SDS011;59968;51.084;16.748;2023-08-24T09:23:45;6.40;;;3.50;;
72095;SDS011;59968;51.084;16.748;2023-08-24T09:26:35;4.00;;;3.60;;
72095;SDS011;59968;51.084;16.748;2023-08-24T09:29:15;4.70;;;3.10;;
72095;SDS011;59968;51.084;16.748;2023-08-24T09:31:44;4.40;;;2.90;;
72095;SDS011;59968;51.084;16.748;2023-08-24T09:34:13;3.90;;;2.90;;
72095;SDS011;59968;51.084;16.748;2023-08-24T09:36:42;5.00;;;3.10;;
72095;SDS011;59968;51.084;16.748;2023-08-24T09:39:16;3.00;;;2.70;;
72095;SDS011;59968;51.084;16.748;2023-08-24T09:41:46;3.40;;;2.70;;
72095;SDS011;59968;51.084;16.748;2023-08-24T09:44:17;4.40;;;3.10;;
72095;SDS011;59968;51.084;16.748;2023-08-24T09:46:46;5.20;;;2.80;;
72095;SDS011;59968;51.084;16.748;2023-08-24T09:49:15;4.20;;;2.90;;
72095;SDS011;59968;51.084;16.748;2023-08-24T09:51:44;3.50;;;2.80;;
72095;SDS011;59968;51.084;16.748;2023-08-24T09:54:14;4.50;;;3.20;;
72095;SDS011;59968;51.084;16.748;2023-08-24T09:56:45;3.80;;;2.80;;
72095;SDS011;59968;51.084;16.748;2023-08-24T09:59:17;4.40;;;3.30;;
72095;SDS011;59968;51.084;16.748;2023-08-24T10:01:52;4.70;;;3.70;;
72095;SDS011;59968;51.084;16.748;2023-08-24T10:04:25;5.10;;;3.40;;
72095;SDS011;59968;51.084;16.748;2023-08-24T10:07:10;3.40;;;3.00;;
72095;SDS011;59968;51.084;16.748;2023-08-24T10:13:08;5.10;;;3.70;;
72095;SDS011;59968;51.084;16.748;2023-08-24T10:15:50;5.00;;;3.50;;
72095;SDS011;59968;51.084;16.748;2023-08-24T10:21:52;4.40;;;4.00;;
72095;SDS011;59968;51.084;16.748;2023-08-24T10:24:27;5.20;;;3.70;;
72095;SDS011;59968;51.084;16.748;2023-08-24T10:27:31;5.30;;;3.30;;
72095;SDS011;59968;51.084;16.748;2023-08-24T10:30:02;5.10;;;3.60;;
72095;SDS011;59968;51.084;16.748;2023-08-24T10:32:33;5.10;;;3.30;;
72095;SDS011;59968;51.084;16.748;2023-08-24T10:35:05;5.80;;;3.90;;
72095;SDS011;59968;51.084;16.748;2023-08-24T10:37:35;4.00;;;3.60;;
72095;SDS011;59968;51.084;16.748;2023-08-24T10:40:04;4.00;;;3.50;;
72095;SDS011;59968;51.084;16.748;2023-08-24T10:42:45;6.00;;;3.50;;
72095;SDS011;59968;51.084;16.748;2023-08-24T10:45:15;4.50;;;3.20;;
72095;SDS011;59968;51.084;16.748;2023-08-24T10:47:44;3.80;;;3.40;;
72095;SDS011;59968;51.084;16.748;2023-08-24T10:50:16;4.80;;;3.40;;
72095;SDS011;59968;51.084;16.748;2023-08-24T10:52:44;4.60;;;3.50;;
72095;SDS011;59968;51.084;16.748;2023-08-24T10:55:26;4.40;;;2.90;;
72095;SDS011;59968;51.084;16.748;2023-08-24T10:57:58;4.10;;;3.60;;
72095;SDS011;59968;51.084;16.748;2023-08-24T11:00:28;3.90;;;3.10;;
72095;SDS011;59968;51.084;16.748;2023-08-24T11:03:00;5.70;;;3.60;;
72095;SDS011;59968;51.084;16.748;2023-08-24T11:05:30;5.60;;;3.80;;
72095;SDS011;59968;51.084;16.748;2023-08-24T11:08:01;5.40;;;3.60;;
72095;SDS011;59968;51.084;16.748;2023-08-24T11:10:44;4.90;;;4.20;;
72095;SDS011;59968;51.084;16.748;2023-08-24T11:13:19;3.70;;;3.20;;
72095;SDS011;59968;51.084;16.748;2023-08-24T11:15:50;4.90;;;3.70;;
72095;SDS011;59968;51.084;16.748;2023-08-24T11:18:26;4.30;;;3.60;;
72095;SDS011;59968;51.084;16.748;2023-08-24T11:21:00;6.30;;;4.10;;
72095;SDS011;59968;51.084;16.748;2023-08-24T11:23:32;4.40;;;3.80;;
72095;SDS011;59968;51.084;16.748;2023-08-24T11:26:01;4.00;;;3.50;;
72095;SDS011;59968;51.084;16.748;2023-08-24T11:28:30;4.20;;;3.70;;
72095;SDS011;59968;51.084;16.748;2023-08-24T11:30:59;5.30;;;3.70;;
72095;SDS011;59968;51.084;16.748;2023-08-24T11:33:31;4.40;;;3.40;;
72095;SDS011;59968;51.084;16.748;2023-08-24T11:36:03;6.30;;;4.20;;
72095;SDS011;59968;51.084;16.748;2023-08-24T11:38:39;6.10;;;3.50;;
72095;SDS011;59968;51.084;16.748;2023-08-24T11:41:11;3.70;;;3.40;;
72095;SDS011;59968;51.084;16.748;2023-08-24T11:43:41;3.60;;;3.30;;
72095;SDS011;59968;51.084;16.748;2023-08-24T11:46:11;4.90;;;3.60;;
72095;SDS011;59968;51.084;16.748;2023-08-24T11:48:41;5.90;;;3.60;;
72095;SDS011;59968;51.084;16.748;2023-08-24T11:51:11;3.80;;;3.10;;
72095;SDS011;59968;51.084;16.748;2023-08-24T11:53:43;4.00;;;3.50;;
72095;SDS011;59968;51.084;16.748;2023-08-24T11:56:15;4.60;;;3.30;;
72095;SDS011;59968;51.084;16.748;2023-08-24T11:58:49;4.30;;;3.70;;
72095;SDS011;59968;51.084;16.748;2023-08-24T12:01:19;4.40;;;3.80;;
72095;SDS011;59968;51.084;16.748;2023-08-24T12:03:49;5.50;;;3.80;;
72095;SDS011;59968;51.084;16.748;2023-08-24T12:06:19;3.80;;;3.30;;
72095;SDS011;59968;51.084;16.748;2023-08-24T12:08:48;5.30;;;4.00;;
72095;SDS011;59968;51.084;16.748;2023-08-24T12:11:18;5.40;;;3.20;;
72095;SDS011;59968;51.084;16.748;2023-08-24T12:13:49;4.10;;;3.30;;
72095;SDS011;59968;51.084;16.748;2023-08-24T12:16:19;4.60;;;3.20;;
72095;SDS011;59968;51.084;16.748;2023-08-24T12:18:53;7.00;;;3.70;;
72095;SDS011;59968;51.084;16.748;2023-08-24T12:21:23;5.10;;;3.80;;
72095;SDS011;59968;51.084;16.748;2023-08-24T12:26:26;4.00;;;3.40;;
72095;SDS011;59968;51.084;16.748;2023-08-24T12:28:59;4.60;;;3.20;;
72095;SDS011;59968;51.084;16.748;2023-08-24T12:31:32;3.50;;;3.10;;
72095;SDS011;59968;51.084;16.748;2023-08-24T12:34:05;5.20;;;3.10;;
72095;SDS011;59968;51.084;16.748;2023-08-24T12:36:37;3.90;;;3.40;;
72095;SDS011;59968;51.084;16.748;2023-08-24T12:39:07;4.20;;;3.80;;
72095;SDS011;59968;51.084;16.748;2023-08-24T12:41:38;4.70;;;3.40;;
72095;SDS011;59968;51.084;16.748;2023-08-24T12:44:07;4.40;;;3.10;;
72095;SDS011;59968;51.084;16.748;2023-08-24T12:46:39;4.90;;;3.40;;
72095;SDS011;59968;51.084;16.748;2023-08-24T12:49:08;4.50;;;3.30;;
72095;SDS011;59968;51.084;16.748;2023-08-24T12:51:36;6.40;;;3.10;;
72095;SDS011;59968;51.084;16.748;2023-08-24T12:54:07;7.00;;;3.70;;
72095;SDS011;59968;51.084;16.748;2023-08-24T12:56:39;3.30;;;3.00;;
72095;SDS011;59968;51.084;16.748;2023-08-24T12:59:11;4.00;;;3.60;;
72095;SDS011;59968;51.084;16.748;2023-08-24T13:01:42;5.10;;;3.40;;
72095;SDS011;59968;51.084;16.748;2023-08-24T13:04:12;5.70;;;3.20;;
72095;SDS011;59968;51.084;16.748;2023-08-24T13:06:40;5.20;;;3.00;;
72095;SDS011;59968;51.084;16.748;2023-08-24T13:09:09;3.40;;;3.10;;
72095;SDS011;59968;51.084;16.748;2023-08-24T13:11:40;4.10;;;3.10;;
72095;SDS011;59968;51.084;16.748;2023-08-24T13:14:08;4.90;;;3.60;;
72095;SDS011;59968;51.084;16.748;2023-08-24T13:16:39;3.50;;;3.20;;
72095;SDS011;59968;51.084;16.748;2023-08-24T13:19:09;6.80;;;3.00;;
72095;SDS011;59968;51.084;16.748;2023-08-24T13:21:38;5.90;;;3.60;;
72095;SDS011;59968;51.084;16.748;2023-08-24T13:24:07;3.90;;;3.20;;
72095;SDS011;59968;51.084;16.748;2023-08-24T13:26:36;5.20;;;3.50;;
72095;SDS011;59968;51.084;16.748;2023-08-24T13:29:09;4.50;;;3.20;;
72095;SDS011;59968;51.084;16.748;2023-08-24T13:31:40;5.30;;;3.20;;
72095;SDS011;59968;51.084;16.748;2023-08-24T13:34:09;6.40;;;3.40;;
72095;SDS011;59968;51.084;16.748;2023-08-24T13:36:41;4.10;;;3.20;;
72095;SDS011;59968;51.084;16.748;2023-08-24T13:39:10;4.20;;;3.40;;
72095;SDS011;59968;51.084;16.748;2023-08-24T13:41:39;4.00;;;3.70;;
72095;SDS011;59968;51.084;16.748;2023-08-24T13:44:08;5.10;;;3.10;;
72095;SDS011;59968;51.084;16.748;2023-08-24T13:46:38;4.70;;;2.90;;
72095;SDS011;59968;51.084;16.748;2023-08-24T13:49:07;4.40;;;3.00;;
72095;SDS011;59968;51.084;16.748;2023-08-24T13:51:37;5.40;;;2.90;;
72095;SDS011;59968;51.084;16.748;2023-08-24T13:54:15;4.00;;;3.10;;
72095;SDS011;59968;51.084;16.748;2023-08-24T13:56:47;4.40;;;3.00;;
72095;SDS011;59968;51.084;16.748;2023-08-24T13:59:16;4.10;;;3.40;;
72095;SDS011;59968;51.084;16.748;2023-08-24T14:01:45;3.60;;;3.00;;
72095;SDS011;59968;51.084;16.748;2023-08-24T14:04:14;5.50;;;3.50;;
72095;SDS011;59968;51.084;16.748;2023-08-24T14:06:43;4.80;;;3.20;;
72095;SDS011;59968;51.084;16.748;2023-08-24T14:09:12;6.00;;;3.60;;
72095;SDS011;59968;51.084;16.748;2023-08-24T14:11:40;4.00;;;3.30;;
72095;SDS011;59968;51.084;16.748;2023-08-24T14:14:09;5.70;;;3.40;;
72095;SDS011;59968;51.084;16.748;2023-08-24T14:16:41;3.80;;;3.20;;
72095;SDS011;59968;51.084;16.748;2023-08-24T14:19:10;4.40;;;3.50;;
72095;SDS011;59968;51.084;16.748;2023-08-24T14:21:39;4.40;;;3.40;;
72095;SDS011;59968;51.084;16.748;2023-08-24T14:24:12;4.60;;;3.50;;
72095;SDS011;59968;51.084;16.748;2023-08-24T14:26:42;6.90;;;3.30;;
72095;SDS011;59968;51.084;16.748;2023-08-24T14:29:13;4.40;;;3.30;;
72095;SDS011;59968;51.084;16.748;2023-08-24T14:31:43;4.50;;;3.90;;
72095;SDS011;59968;51.084;16.748;2023-08-24T14:34:13;4.30;;;3.60;;
72095;SDS011;59968;51.084;16.748;2023-08-24T14:36:42;4.30;;;3.20;;
72095;SDS011;59968;51.084;16.748;2023-08-24T14:39:15;4.70;;;3.10;;
72095;SDS011;59968;51.084;16.748;2023-08-24T14:41:45;3.60;;;3.30;;
72095;SDS011;59968;51.084;16.748;2023-08-24T14:44:16;6.00;;;3.60;;
72095;SDS011;59968;51.084;16.748;2023-08-24T14:46:45;6.10;;;3.40;;
72095;SDS011;59968;51.084;16.748;2023-08-24T14:49:14;6.00;;;3.60;;
72095;SDS011;59968;51.084;16.748;2023-08-24T14:51:47;4.90;;;3.80;;
72095;SDS011;59968;51.084;16.748;2023-08-24T14:54:17;4.50;;;3.50;;
72095;SDS011;59968;51.084;16.748;2023-08-24T14:56:48;5.50;;;3.60;;
72095;SDS011;59968;51.084;16.748;2023-08-24T14:59:17;6.00;;;4.00;;
72095;SDS011;59968;51.084;16.748;2023-08-24T15:01:48;4.60;;;3.30;;
72095;SDS011;59968;51.084;16.748;2023-08-24T15:04:16;4.10;;;3.20;;
72095;SDS011;59968;51.084;16.748;2023-08-24T15:06:45;6.50;;;3.70;;